Time;durP1;ratioP1;P1;durP2;ratioP2;P2;SDS_P1;SDS_P2;PMS_P1;PMS_P2;Temp;Humidity;BMP_temperature;BMP_pressure;BME280_temperature;BME280_humidity;BME280_pressure;Samples;Min_cycle;Max_cycle;Signal;HPM_P1;HPM_P2
2022/09/16 00:00:50;;;;;;;3.00;1.08;;;;;;;;;;4993387;28;20045;-69
2022/09/16 00:03:16;;;;;;;10.43;2.33;;;;;;;;;;4993659;28;20395;-70
2022/09/16 00:05:47;;;;;;;6.47;2.63;;;;;;;;;;4994823;28;20329;-69
2022/09/16 00:08:13;;;;;;;2.17;0.90;;;;;;;;;;4994541;28;20464;-69
2022/09/16 00:10:38;;;;;;;3.10;0.70;;;;;;;;;;4993378;28;20434;-70
2022/09/16 00:13:04;;;;;;;3.83;1.10;;;;;;;;;;4994748;28;20026;-69
2022/09/16 00:15:29;;;;;;;0.60;0.60;;;;;;;;;;4994590;28;20030;-68
2022/09/16 00:17:55;;;;;;;4.32;0.90;;;;;;;;;;4994607;28;20069;-68
2022/09/16 00:20:20;;;;;;;6.40;0.80;;;;;;;;;;4994993;28;20038;-69
2022/09/16 00:22:45;;;;;;;1.38;0.75;;;;;;;;;;4994593;28;20510;-69
2022/09/16 00:25:10;;;;;;;4.43;0.90;;;;;;;;;;4994583;28;20026;-69
2022/09/16 00:27:36;;;;;;;2.53;0.70;;;;;;;;;;4994167;28;20275;-68
2022/09/16 00:30:01;;;;;;;2.00;0.90;;;;;;;;;;4994306;28;20368;-68
2022/09/16 00:32:26;;;;;;;2.55;0.88;;;;;;;;;;4994209;28;20283;-69
2022/09/16 00:34:51;;;;;;;2.50;1.00;;;;;;;;;;4994108;28;20049;-69
2022/09/16 00:37:17;;;;;;;1.53;0.70;;;;;;;;;;4994010;28;20303;-68
2022/09/16 00:39:42;;;;;;;2.22;0.70;;;;;;;;;;4994218;28;20263;-68
2022/09/16 00:42:10;;;;;;;4.60;1.00;;;;;;;;;;4993974;28;20026;-68
2022/09/16 00:44:51;;;;;;;4.15;1.85;;;;;;;;;;4994143;28;20290;-68
2022/09/16 00:47:29;;;;;;;2.03;0.75;;;;;;;;;;4992449;28;20129;-68
2022/09/16 00:49:59;;;;;;;1.58;0.80;;;;;;;;;;4993981;28;20041;-68
2022/09/16 00:52:26;;;;;;;4.28;0.90;;;;;;;;;;4994005;28;20026;-68
2022/09/16 00:54:51;;;;;;;3.35;0.90;;;;;;;;;;4993957;28;20069;-69
2022/09/16 00:57:17;;;;;;;3.05;0.80;;;;;;;;;;4993721;28;20557;-69
2022/09/16 00:59:46;;;;;;;2.70;0.60;;;;;;;;;;4993568;28;20057;-69
2022/09/16 01:02:15;;;;;;;1.40;0.80;;;;;;;;;;4993813;28;20026;-69
2022/09/16 01:04:52;;;;;;;2.40;0.80;;;;;;;;;;4993546;28;20029;-69
2022/09/16 01:07:35;;;;;;;2.10;0.90;;;;;;;;;;4993410;28;20030;-68
2022/09/16 01:10:00;;;;;;;2.03;0.75;;;;;;;;;;4993808;28;20041;-69
2022/09/16 01:12:28;;;;;;;3.47;0.82;;;;;;;;;;4992159;28;20451;-69
2022/09/16 01:14:54;;;;;;;4.53;0.73;;;;;;;;;;4993445;28;20056;-69
2022/09/16 01:17:39;;;;;;;2.13;0.90;;;;;;;;;;4993284;28;20129;-70
2022/09/16 01:20:16;;;;;;;1.75;0.80;;;;;;;;;;4993295;28;20030;-68
2022/09/16 01:23:08;;;;;;;3.30;0.70;;;;;;;;;;4993295;28;20033;-69
2022/09/16 01:26:04;;;;;;;1.52;0.90;;;;;;;;;;4993563;28;20037;-70
2022/09/16 01:28:58;;;;;;;3.70;0.95;;;;;;;;;;4991561;28;20026;-70
2022/09/16 01:31:33;;;;;;;3.00;0.73;;;;;;;;;;4993305;28;20029;-70
2022/09/16 01:34:20;;;;;;;2.60;0.90;;;;;;;;;;4993384;28;20034;-69
2022/09/16 01:37:05;;;;;;;3.15;1.10;;;;;;;;;;4995693;28;20344;-68
2022/09/16 01:40:08;;;;;;;2.63;0.80;;;;;;;;;;4999945;28;20403;-70
2022/09/16 01:42:56;;;;;;;6.97;1.00;;;;;;;;;;4998230;28;20108;-68
2022/09/16 01:45:45;;;;;;;1.40;0.80;;;;;;;;;;4999756;28;20026;-69
2022/09/16 01:48:29;;;;;;;1.42;0.60;;;;;;;;;;4999584;28;20022;-69
2022/09/16 01:51:13;;;;;;;3.30;0.90;;;;;;;;;;4999815;28;20065;-69
2022/09/16 01:53:47;;;;;;;2.97;0.90;;;;;;;;;;4999657;28;20037;-69
2022/09/16 01:56:43;;;;;;;3.03;0.77;;;;;;;;;;5000023;28;20469;-69
2022/09/16 01:59:12;;;;;;;1.92;0.80;;;;;;;;;;4999440;28;20030;-68
2022/09/16 02:01:56;;;;;;;3.00;0.70;;;;;;;;;;4999297;28;20432;-69
2022/09/16 02:04:26;;;;;;;2.03;0.75;;;;;;;;;;4999655;28;20034;-68
2022/09/16 02:06:54;;;;;;;3.05;0.90;;;;;;;;;;4999581;28;20130;-69
2022/09/16 02:09:25;;;;;;;2.85;0.82;;;;;;;;;;4999526;28;20026;-70
2022/09/16 02:11:56;;;;;;;2.42;0.70;;;;;;;;;;4999412;28;20029;-70
2022/09/16 02:14:26;;;;;;;1.45;0.60;;;;;;;;;;4999652;28;20022;-68
2022/09/16 02:16:57;;;;;;;0.80;0.60;;;;;;;;;;4999619;28;20034;-69
2022/09/16 02:19:28;;;;;;;2.03;0.73;;;;;;;;;;4999651;28;20022;-68
2022/09/16 02:21:55;;;;;;;3.35;0.60;;;;;;;;;;4999448;28;20034;-69
2022/09/16 02:24:23;;;;;;;3.08;0.90;;;;;;;;;;4999216;28;20033;-69
2022/09/16 02:26:55;;;;;;;2.92;0.73;;;;;;;;;;4999293;28;20030;-69
2022/09/16 02:29:24;;;;;;;3.67;0.80;;;;;;;;;;4999105;28;20395;-69
2022/09/16 02:31:54;;;;;;;0.85;0.65;;;;;;;;;;4999440;28;20050;-69
2022/09/16 02:34:28;;;;;;;6.90;0.80;;;;;;;;;;4999197;28;20038;-69
2022/09/16 02:36:59;;;;;;;1.77;0.73;;;;;;;;;;4999314;28;20108;-69
2022/09/16 02:39:28;;;;;;;4.88;0.70;;;;;;;;;;4999245;28;20085;-69
2022/09/16 02:41:55;;;;;;;4.55;0.80;;;;;;;;;;4998294;28;20033;-69
2022/09/16 02:44:22;;;;;;;2.95;0.70;;;;;;;;;;4999302;28;20027;-69
2022/09/16 02:47:17;;;;;;;3.50;0.70;;;;;;;;;;4999639;28;20030;-69
2022/09/16 02:49:43;;;;;;;;;;;;;;;;;;4991603;28;20046;-70
2022/09/16 02:52:23;;;;;;;4.60;0.70;;;;;;;;;;4996027;28;19984;-69
2022/09/16 02:54:54;;;;;;;2.95;0.80;;;;;;;;;;4995937;28;20628;-69
2022/09/16 02:57:20;;;;;;;2.95;0.80;;;;;;;;;;4995952;28;20034;-68
2022/09/16 02:59:46;;;;;;;1.92;0.77;;;;;;;;;;4995784;28;20030;-69
2022/09/16 03:02:11;;;;;;;3.58;0.88;;;;;;;;;;4995932;28;20496;-69
2022/09/16 03:04:37;;;;;;;1.67;0.75;;;;;;;;;;4995814;28;20069;-69
2022/09/16 03:07:05;;;;;;;3.38;0.80;;;;;;;;;;4995760;28;20037;-70
2022/09/16 03:09:33;;;;;;;2.70;0.57;;;;;;;;;;4995701;28;20057;-69
2022/09/16 03:12:38;;;;;;;3.28;0.82;;;;;;;;;;4996157;28;20396;-69
2022/09/16 03:15:26;;;;;;;2.45;0.98;;;;;;;;;;4989978;28;20037;-70
2022/09/16 03:18:06;;;;;;;2.45;0.82;;;;;;;;;;4995647;28;20029;-69
2022/09/16 03:20:51;;;;;;;4.85;0.90;;;;;;;;;;4995587;28;20026;-69
2022/09/16 03:23:19;;;;;;;1.35;0.60;;;;;;;;;;4994488;28;20050;-70
2022/09/16 03:26:01;;;;;;;4.93;1.00;;;;;;;;;;4995374;28;20069;-69
2022/09/16 03:28:32;;;;;;;5.05;1.02;;;;;;;;;;4995125;28;20129;-69
2022/09/16 03:31:08;;;;;;;7.97;1.10;;;;;;;;;;4995438;28;20106;-68
2022/09/16 03:33:49;;;;;;;4.20;1.05;;;;;;;;;;4995574;28;20030;-68
2022/09/16 03:36:21;;;;;;;1.42;0.70;;;;;;;;;;4995116;28;20545;-68
2022/09/16 03:38:48;;;;;;;7.43;0.90;;;;;;;;;;4995343;28;20054;-70
2022/09/16 03:41:15;;;;;;;2.30;0.90;;;;;;;;;;4995082;28;20062;-69
2022/09/16 03:43:51;;;;;;;2.92;0.65;;;;;;;;;;4994993;28;20536;-69
2022/09/16 03:46:16;;;;;;;3.58;1.00;;;;;;;;;;4995110;28;20041;-69
2022/09/16 03:48:42;;;;;;;3.42;0.90;;;;;;;;;;4994781;28;20049;-68
2022/09/16 03:51:07;;;;;;;1.55;0.90;;;;;;;;;;4994755;28;20054;-69
2022/09/16 03:53:32;;;;;;;2.17;0.90;;;;;;;;;;4994687;28;20534;-69
2022/09/16 03:55:57;;;;;;;1.40;0.70;;;;;;;;;;4994668;28;20741;-70
2022/09/16 03:58:22;;;;;;;2.87;0.87;;;;;;;;;;4994606;28;20335;-70
2022/09/16 04:00:49;;;;;;;1.80;0.70;;;;;;;;;;4994572;28;20306;-69
2022/09/16 04:03:15;;;;;;;5.57;1.05;;;;;;;;;;4994586;28;20305;-69
2022/09/16 04:05:40;;;;;;;2.45;0.77;;;;;;;;;;4994684;28;20034;-70
2022/09/16 04:08:05;;;;;;;3.30;1.00;;;;;;;;;;4994538;28;20076;-68
2022/09/16 04:10:30;;;;;;;2.57;1.10;;;;;;;;;;4994397;28;20263;-69
2022/09/16 04:12:57;;;;;;;4.90;1.27;;;;;;;;;;4994430;28;20264;-69
2022/09/16 04:15:22;;;;;;;1.42;0.70;;;;;;;;;;4994400;28;20260;-69
2022/09/16 04:17:48;;;;;;;4.07;1.00;;;;;;;;;;4994334;28;20022;-69
2022/09/16 04:20:13;;;;;;;2.57;0.87;;;;;;;;;;4994566;28;20395;-70
2022/09/16 04:22:38;;;;;;;3.88;0.73;;;;;;;;;;4994815;28;20629;-69
2022/09/16 04:25:04;;;;;;;2.33;0.80;;;;;;;;;;4994916;28;20108;-68
2022/09/16 04:27:29;;;;;;;2.45;1.13;;;;;;;;;;4994021;28;20303;-69
2022/09/16 04:29:55;;;;;;;2.93;0.80;;;;;;;;;;4994344;28;20069;-69
2022/09/16 04:32:20;;;;;;;1.23;0.82;;;;;;;;;;4994043;28;20306;-68
2022/09/16 04:34:45;;;;;;;5.43;1.13;;;;;;;;;;4994377;28;20037;-68
2022/09/16 04:37:10;;;;;;;1.83;0.80;;;;;;;;;;4993865;28;20034;-69
2022/09/16 04:39:36;;;;;;;6.33;1.20;;;;;;;;;;4992755;28;20062;-68
2022/09/16 04:42:01;;;;;;;2.97;1.38;;;;;;;;;;4993818;28;20259;-70
2022/09/16 04:44:29;;;;;;;6.55;0.93;;;;;;;;;;4993872;28;20400;-69
2022/09/16 04:46:54;;;;;;;4.53;1.15;;;;;;;;;;4993918;28;20022;-69
2022/09/16 04:49:19;;;;;;;3.17;1.00;;;;;;;;;;4993907;28;20026;-68
2022/09/16 04:51:44;;;;;;;5.85;0.98;;;;;;;;;;4993813;28;20266;-70
2022/09/16 04:54:11;;;;;;;3.50;1.03;;;;;;;;;;4993991;28;20022;-68
2022/09/16 04:56:36;;;;;;;1.90;1.00;;;;;;;;;;4992410;28;20318;-68
2022/09/16 04:59:03;;;;;;;3.63;1.00;;;;;;;;;;4993629;28;20105;-68
2022/09/16 05:01:35;;;;;;;2.85;1.23;;;;;;;;;;4993799;28;20117;-69
2022/09/16 05:04:03;;;;;;;3.50;1.10;;;;;;;;;;4993777;28;20451;-69
2022/09/16 05:06:31;;;;;;;1.85;1.00;;;;;;;;;;4993383;28;20026;-68
2022/09/16 05:08:57;;;;;;;4.28;1.05;;;;;;;;;;4992065;28;20032;-68
2022/09/16 05:11:27;;;;;;;2.10;0.90;;;;;;;;;;4992762;28;20034;-68
2022/09/16 05:13:54;;;;;;;5.32;1.30;;;;;;;;;;4992052;28;20439;-68
2022/09/16 05:16:21;;;;;;;2.28;0.90;;;;;;;;;;4991968;28;20030;-69
2022/09/16 05:18:48;;;;;;;4.40;1.10;;;;;;;;;;4993294;28;20153;-69
2022/09/16 05:21:16;;;;;;;4.97;1.08;;;;;;;;;;4993248;28;20026;-68
2022/09/16 05:23:42;;;;;;;3.03;0.98;;;;;;;;;;4993130;28;20052;-69
2022/09/16 05:26:11;;;;;;;2.95;1.13;;;;;;;;;;4991827;28;20037;-70
2022/09/16 05:28:36;;;;;;;2.38;0.90;;;;;;;;;;4993081;28;20404;-68
2022/09/16 05:31:15;;;;;;;4.90;1.30;;;;;;;;;;4992018;28;20030;-69
2022/09/16 05:33:43;;;;;;;2.50;0.90;;;;;;;;;;4993397;28;20076;-69
2022/09/16 05:36:11;;;;;;;5.28;1.20;;;;;;;;;;4991913;28;20026;-69
2022/09/16 05:38:37;;;;;;;2.65;0.85;;;;;;;;;;4992655;28;20396;-69
2022/09/16 05:41:04;;;;;;;3.95;1.00;;;;;;;;;;4993286;28;20022;-69
2022/09/16 05:43:30;;;;;;;1.77;0.85;;;;;;;;;;4993117;28;20057;-69
2022/09/16 05:45:56;;;;;;;3.42;1.00;;;;;;;;;;4993264;28;20075;-69
2022/09/16 05:48:22;;;;;;;3.13;0.90;;;;;;;;;;4992811;28;20035;-69
2022/09/16 05:50:57;;;;;;;4.35;0.90;;;;;;;;;;4992742;28;20104;-69
2022/09/16 05:53:24;;;;;;;4.03;0.80;;;;;;;;;;4992905;28;20387;-69
2022/09/16 05:55:53;;;;;;;1.65;0.68;;;;;;;;;;4992965;28;20092;-69
2022/09/16 05:58:18;;;;;;;3.35;0.90;;;;;;;;;;4992852;28;20495;-70
2022/09/16 06:00:44;;;;;;;2.40;0.90;;;;;;;;;;4993083;28;20029;-70
2022/09/16 06:03:09;;;;;;;2.10;1.00;;;;;;;;;;4993238;28;20279;-69
2022/09/16 06:05:34;;;;;;;2.40;0.90;;;;;;;;;;4992945;28;20023;-69
2022/09/16 06:08:00;;;;;;;3.77;0.97;;;;;;;;;;4992774;28;20030;-69
2022/09/16 06:10:25;;;;;;;6.50;0.80;;;;;;;;;;4993037;28;20745;-69
2022/09/16 06:12:50;;;;;;;1.33;0.90;;;;;;;;;;4992994;28;20045;-70
2022/09/16 06:15:15;;;;;;;4.13;1.17;;;;;;;;;;4993031;28;20033;-68
2022/09/16 06:17:41;;;;;;;3.30;1.20;;;;;;;;;;4992783;28;20301;-69
2022/09/16 06:20:08;;;;;;;1.70;0.80;;;;;;;;;;4992923;28;20260;-68
2022/09/16 06:22:34;;;;;;;2.60;0.90;;;;;;;;;;4993194;28;20306;-69
2022/09/16 06:24:59;;;;;;;2.08;0.82;;;;;;;;;;4996509;28;20022;-68
2022/09/16 06:27:24;;;;;;;2.43;1.07;;;;;;;;;;4996472;28;20507;-69
2022/09/16 06:29:50;;;;;;;5.97;1.20;;;;;;;;;;4996733;28;20706;-75
2022/09/16 06:32:15;;;;;;;2.03;0.95;;;;;;;;;;4996744;28;20892;-77
2022/09/16 06:34:40;;;;;;;5.07;1.25;;;;;;;;;;4998335;28;20026;-78
2022/09/16 06:37:05;;;;;;;5.83;1.20;;;;;;;;;;4999179;28;20030;-78
2022/09/16 06:39:31;;;;;;;7.15;1.45;;;;;;;;;;4998878;28;20263;-77
2022/09/16 06:41:56;;;;;;;6.18;1.65;;;;;;;;;;5000676;28;20041;-77
2022/09/16 06:44:22;;;;;;;1.85;1.17;;;;;;;;;;4998769;28;20038;-77
2022/09/16 06:46:47;;;;;;;3.65;1.50;;;;;;;;;;4997467;28;20030;-78
2022/09/16 06:49:12;;;;;;;4.13;1.37;;;;;;;;;;4998503;28;20046;-77
2022/09/16 06:51:37;;;;;;;2.70;1.17;;;;;;;;;;5000089;28;20337;-76
2022/09/16 06:54:06;;;;;;;4.05;1.20;;;;;;;;;;5000359;28;20741;-77
2022/09/16 06:56:32;;;;;;;5.85;1.27;;;;;;;;;;4998282;28;20050;-76
2022/09/16 06:58:58;;;;;;;4.22;1.27;;;;;;;;;;4996694;28;20053;-78
2022/09/16 07:01:28;;;;;;;2.20;1.00;;;;;;;;;;4999430;28;20030;-77
2022/09/16 07:03:55;;;;;;;3.28;1.20;;;;;;;;;;4999994;28;20267;-77
2022/09/16 07:06:21;;;;;;;4.90;1.40;;;;;;;;;;4995634;28;20034;-77
2022/09/16 07:08:47;;;;;;;1.92;1.02;;;;;;;;;;4995792;28;20513;-76
2022/09/16 07:11:14;;;;;;;7.20;1.15;;;;;;;;;;4995911;28;20038;-77
2022/09/16 07:13:41;;;;;;;2.63;1.00;;;;;;;;;;4996185;28;20057;-77
2022/09/16 07:16:11;;;;;;;2.55;1.00;;;;;;;;;;4996484;28;20077;-77
2022/09/16 07:18:37;;;;;;;3.80;1.17;;;;;;;;;;4995461;28;20440;-77
2022/09/16 07:21:10;;;;;;;3.17;0.98;;;;;;;;;;4995649;28;20053;-77
2022/09/16 07:23:36;;;;;;;4.93;1.27;;;;;;;;;;4996498;28;20041;-78
2022/09/16 07:26:08;;;;;;;3.97;1.00;;;;;;;;;;4995612;28;20483;-78
2022/09/16 07:28:35;;;;;;;2.75;1.08;;;;;;;;;;4995628;28;20146;-77
2022/09/16 07:31:05;;;;;;;1.90;1.00;;;;;;;;;;4995437;28;20058;-78
2022/09/16 07:33:32;;;;;;;1.88;0.90;;;;;;;;;;4997075;28;20105;-77
2022/09/16 07:36:01;;;;;;;2.00;0.95;;;;;;;;;;4993970;28;20030;-76
2022/09/16 07:38:28;;;;;;;2.35;1.00;;;;;;;;;;4995907;28;20026;-78
2022/09/16 07:40:54;;;;;;;3.97;1.00;;;;;;;;;;4996051;28;20112;-77
2022/09/16 07:43:19;;;;;;;6.38;1.02;;;;;;;;;;4995971;28;20470;-77
2022/09/16 07:45:45;;;;;;;2.17;0.82;;;;;;;;;;4995696;28;20388;-76
2022/09/16 07:48:10;;;;;;;4.00;1.03;;;;;;;;;;4995612;28;20149;-76
2022/09/16 07:50:35;;;;;;;2.53;1.00;;;;;;;;;;4994106;28;20268;-77
2022/09/16 07:53:00;;;;;;;3.70;0.90;;;;;;;;;;4995944;28;20252;-76
2022/09/16 07:55:26;;;;;;;2.43;1.00;;;;;;;;;;4995396;28;20310;-77
2022/09/16 07:57:51;;;;;;;5.47;1.08;;;;;;;;;;4995852;28;20317;-77
2022/09/16 08:00:16;;;;;;;1.70;0.80;;;;;;;;;;4995497;28;20041;-77
2022/09/16 08:02:42;;;;;;;2.47;1.08;;;;;;;;;;4995836;28;20479;-77
2022/09/16 08:05:08;;;;;;;1.80;0.87;;;;;;;;;;4996157;28;20030;-77
2022/09/16 08:07:40;;;;;;;1.63;0.77;;;;;;;;;;4997676;28;20275;-77
2022/09/16 08:10:05;;;;;;;2.45;0.77;;;;;;;;;;4995746;28;20023;-77
2022/09/16 08:12:32;;;;;;;2.13;0.98;;;;;;;;;;4995727;28;20041;-77
2022/09/16 08:14:58;;;;;;;3.58;0.93;;;;;;;;;;4995555;28;20036;-77
2022/09/16 08:17:25;;;;;;;3.03;0.85;;;;;;;;;;4995635;28;20526;-77
2022/09/16 08:19:57;;;;;;;1.77;0.93;;;;;;;;;;4995279;28;20026;-77
2022/09/16 08:22:24;;;;;;;4.45;0.98;;;;;;;;;;4994292;28;20034;-77
2022/09/16 08:24:49;;;;;;;2.53;0.90;;;;;;;;;;4993685;28;20026;-77
2022/09/16 08:27:14;;;;;;;3.97;0.90;;;;;;;;;;4995486;28;20037;-77
2022/09/16 08:29:40;;;;;;;3.27;1.10;;;;;;;;;;4996605;28;20280;-78
2022/09/16 08:32:05;;;;;;;2.35;0.90;;;;;;;;;;4996227;28;20275;-77
2022/09/16 08:34:30;;;;;;;3.45;1.10;;;;;;;;;;4995171;28;20471;-77
2022/09/16 08:36:55;;;;;;;2.20;0.80;;;;;;;;;;4995356;28;20026;-77
2022/09/16 08:39:21;;;;;;;2.00;0.60;;;;;;;;;;4994836;28;20283;-77
2022/09/16 08:41:46;;;;;;;2.25;0.70;;;;;;;;;;4995727;28;20061;-77
2022/09/16 08:44:33;;;;;;;3.13;0.70;;;;;;;;;;4994127;28;20510;-77
2022/09/16 08:47:02;;;;;;;2.92;0.73;;;;;;;;;;4994752;28;20029;-77
2022/09/16 08:49:44;;;;;;;1.83;0.60;;;;;;;;;;4994256;28;20430;-77
2022/09/16 08:52:16;;;;;;;1.58;0.68;;;;;;;;;;4995022;28;20075;-76
2022/09/16 08:54:48;;;;;;;1.75;0.60;;;;;;;;;;4995662;28;20050;-77
2022/09/16 08:57:18;;;;;;;1.83;0.60;;;;;;;;;;4995399;28;20022;-77
2022/09/16 08:59:50;;;;;;;1.65;0.98;;;;;;;;;;4995594;28;20022;-77
2022/09/16 09:02:23;;;;;;;1.88;0.70;;;;;;;;;;4994270;28;20510;-76
2022/09/16 09:04:49;;;;;;;1.88;0.70;;;;;;;;;;4994854;28;20030;-76
2022/09/16 09:07:50;;;;;;;3.28;1.00;;;;;;;;;;4994922;28;20030;-77
2022/09/16 09:10:30;;;;;;;3.30;0.80;;;;;;;;;;4995741;28;20035;-77
2022/09/16 09:13:29;;;;;;;1.63;0.77;;;;;;;;;;4995422;28;20030;-77
2022/09/16 09:16:02;;;;;;;3.22;0.57;;;;;;;;;;4985432;28;20034;-77
2022/09/16 09:18:43;;;;;;;3.65;0.70;;;;;;;;;;4994656;28;20026;-76
2022/09/16 09:21:25;;;;;;;1.27;0.60;;;;;;;;;;4993954;28;20026;-77
2022/09/16 09:24:22;;;;;;;1.60;0.70;;;;;;;;;;4993182;28;20026;-77
2022/09/16 09:26:49;;;;;;;3.42;0.60;;;;;;;;;;4994915;28;20030;-77
2022/09/16 09:29:40;;;;;;;2.97;0.77;;;;;;;;;;4993245;28;20041;-78
2022/09/16 09:32:27;;;;;;;1.15;0.57;;;;;;;;;;4994020;28;20120;-75
2022/09/16 09:35:26;;;;;;;4.30;0.70;;;;;;;;;;4994433;28;20038;-77
2022/09/16 09:37:59;;;;;;;4.63;0.80;;;;;;;;;;4994882;28;20030;-77
2022/09/16 09:40:40;;;;;;;3.30;0.98;;;;;;;;;;4993251;28;20105;-77
2022/09/16 09:43:13;;;;;;;1.52;0.55;;;;;;;;;;4992900;28;20022;-77
2022/09/16 09:46:00;;;;;;;1.73;0.88;;;;;;;;;;4995304;28;20033;-77
2022/09/16 09:48:39;;;;;;;2.40;0.70;;;;;;;;;;4994921;28;20077;-76
2022/09/16 09:51:15;;;;;;;2.08;0.60;;;;;;;;;;4993219;28;20038;-76
2022/09/16 09:53:51;;;;;;;0.98;0.65;;;;;;;;;;4994786;28;20080;-76
2022/09/16 09:56:22;;;;;;;2.63;0.50;;;;;;;;;;4994661;28;20078;-77
2022/09/16 09:59:25;;;;;;;3.30;0.57;;;;;;;;;;4995313;28;20022;-77
2022/09/16 10:01:55;;;;;;;5.75;0.70;;;;;;;;;;4998183;28;20076;-77
2022/09/16 10:04:20;;;;;;;4.43;0.60;;;;;;;;;;4996718;28;20026;-77
2022/09/16 10:06:47;;;;;;;1.27;0.50;;;;;;;;;;4997764;28;20049;-76
2022/09/16 10:09:15;;;;;;;1.00;0.50;;;;;;;;;;4997576;28;20029;-76
2022/09/16 10:11:56;;;;;;;2.53;0.70;;;;;;;;;;4997349;28;20038;-76
2022/09/16 10:14:39;;;;;;;3.72;0.60;;;;;;;;;;4997957;28;20018;-77
2022/09/16 10:17:14;;;;;;;1.17;0.50;;;;;;;;;;4998336;28;20164;-77
2022/09/16 10:20:05;;;;;;;1.45;0.50;;;;;;;;;;4997287;28;20015;-76
2022/09/16 10:22:33;;;;;;;2.78;0.70;;;;;;;;;;4998321;28;20487;-77
2022/09/16 10:25:00;;;;;;;2.70;0.60;;;;;;;;;;4998216;28;20034;-78
2022/09/16 10:27:34;;;;;;;3.83;0.75;;;;;;;;;;4997078;28;20518;-76
2022/09/16 10:30:18;;;;;;;0.60;0.38;;;;;;;;;;4996202;28;20118;-76
2022/09/16 10:32:46;;;;;;;;;;;;;;;;;;4998237;28;20058;-77
2022/09/16 10:35:20;;;;;;;1.42;0.45;;;;;;;;;;4997376;28;19916;-77
2022/09/16 10:37:52;;;;;;;4.55;1.00;;;;;;;;;;4997054;28;20026;-76
2022/09/16 10:40:18;;;;;;;1.75;0.50;;;;;;;;;;4998248;28;20031;-78
2022/09/16 10:42:46;;;;;;;0.40;0.40;;;;;;;;;;4998947;28;20543;-77
2022/09/16 10:45:22;;;;;;;64.03;1.95;;;;;;;;;;4999403;28;20042;-77
2022/09/16 10:47:51;;;;;;;3.72;1.02;;;;;;;;;;4997291;28;20052;-77
2022/09/16 10:50:18;;;;;;;4.93;1.30;;;;;;;;;;4997151;28;20026;-76
2022/09/16 10:52:46;;;;;;;2.95;1.35;;;;;;;;;;4997132;28;20030;-78
2022/09/16 10:55:20;;;;;;;3.42;1.20;;;;;;;;;;4998076;28;20032;-78
2022/09/16 10:57:46;;;;;;;1.88;1.08;;;;;;;;;;4997632;28;20114;-78
2022/09/16 11:00:23;;;;;;;2.42;1.25;;;;;;;;;;4999658;28;20065;-78
2022/09/16 11:03:28;;;;;;;2.65;1.20;;;;;;;;;;4999973;28;20030;-77
2022/09/16 11:06:15;;;;;;;1.90;1.20;;;;;;;;;;4996463;28;20026;-77
2022/09/16 11:08:52;;;;;;;2.70;1.20;;;;;;;;;;5001190;28;20146;-78
2022/09/16 11:12:02;;;;;;;2.40;1.10;;;;;;;;;;5001600;28;20038;-78
2022/09/16 11:14:54;;;;;;;2.17;1.27;;;;;;;;;;4998064;28;20050;-78
2022/09/16 11:17:41;;;;;;;1.60;1.13;;;;;;;;;;5016215;28;20037;-77
2022/09/16 11:20:32;;;;;;;3.63;1.27;;;;;;;;;;5017498;28;20026;-77
2022/09/16 11:23:28;;;;;;;2.00;1.02;;;;;;;;;;5005609;28;20121;-77
2022/09/16 11:26:23;;;;;;;1.27;0.80;;;;;;;;;;4997314;28;20045;-77
2022/09/16 11:29:24;;;;;;;3.35;0.90;;;;;;;;;;4987979;28;20038;-78
2022/09/16 11:32:07;;;;;;;1.77;0.90;;;;;;;;;;5002236;28;20105;-78
2022/09/16 11:34:45;;;;;;;0.55;0.55;;;;;;;;;;5001968;28;20027;-78
2022/09/16 11:37:24;;;;;;;1.35;0.70;;;;;;;;;;4999289;28;20033;-78
2022/09/16 11:40:10;;;;;;;1.08;0.70;;;;;;;;;;4998682;28;20030;-77
2022/09/16 11:42:57;;;;;;;1.00;0.70;;;;;;;;;;4997108;28;20508;-77
2022/09/16 11:45:59;;;;;;;3.50;0.85;;;;;;;;;;4996929;28;20030;-77
2022/09/16 11:48:47;;;;;;;2.15;1.00;;;;;;;;;;4989719;28;20090;-78
2022/09/16 11:51:40;;;;;;;0.75;0.65;;;;;;;;;;4996155;28;20403;-77
2022/09/16 11:54:25;;;;;;;0.85;0.70;;;;;;;;;;4996360;28;20026;-77
2022/09/16 11:56:57;;;;;;;1.25;0.77;;;;;;;;;;4995910;28;20026;-77
2022/09/16 11:59:32;;;;;;;1.67;0.70;;;;;;;;;;4995761;28;20078;-77
2022/09/16 12:02:09;;;;;;;3.90;0.88;;;;;;;;;;4996056;28;20030;-77
2022/09/16 12:04:47;;;;;;;3.10;1.27;;;;;;;;;;4996887;28;20022;-77
2022/09/16 12:07:23;;;;;;;1.33;0.75;;;;;;;;;;4998520;28;20030;-77
2022/09/16 12:10:01;;;;;;;1.70;0.73;;;;;;;;;;4997014;28;20494;-77
2022/09/16 12:12:42;;;;;;;1.92;0.70;;;;;;;;;;4997602;28;20032;-77
2022/09/16 12:15:27;;;;;;;2.15;0.80;;;;;;;;;;4995888;28;20084;-79
2022/09/16 12:18:05;;;;;;;1.88;0.80;;;;;;;;;;4978249;28;20018;-77
2022/09/16 12:20:40;;;;;;;2.20;0.50;;;;;;;;;;4996635;28;20132;-77
2022/09/16 12:23:27;;;;;;;0.82;0.55;;;;;;;;;;4996933;28;20135;-78
2022/09/16 12:26:19;;;;;;;0.47;0.40;;;;;;;;;;4997853;28;20032;-78
2022/09/16 12:29:10;;;;;;;1.20;0.40;;;;;;;;;;4996404;28;20442;-78
2022/09/16 12:31:45;;;;;;;0.57;0.40;;;;;;;;;;4998059;28;20033;-77
2022/09/16 12:34:15;;;;;;;1.75;0.40;;;;;;;;;;4995969;28;20026;-77
2022/09/16 12:36:45;;;;;;;1.23;0.60;;;;;;;;;;4995150;28;20031;-77
2022/09/16 12:39:11;;;;;;;0.98;0.50;;;;;;;;;;4993910;28;20088;-77
2022/09/16 12:42:01;;;;;;;0.90;0.50;;;;;;;;;;4994723;28;20483;-77
2022/09/16 12:44:59;;;;;;;1.42;0.70;;;;;;;;;;4993517;28;20022;-77
2022/09/16 12:47:34;;;;;;;1.48;0.60;;;;;;;;;;4995394;28;20035;-77
2022/09/16 12:50:35;;;;;;;0.85;0.60;;;;;;;;;;4993013;28;20022;-77
2022/09/16 12:53:34;;;;;;;1.92;0.50;;;;;;;;;;4994436;28;20045;-77
2022/09/16 12:56:14;;;;;;;0.80;0.50;;;;;;;;;;4993284;28;20026;-77
2022/09/16 12:58:54;;;;;;;3.63;0.95;;;;;;;;;;4996803;28;20026;-78
2022/09/16 13:01:23;;;;;;;2.88;1.00;;;;;;;;;;4998030;28;20026;-78
2022/09/16 13:03:55;;;;;;;2.80;0.70;;;;;;;;;;4995144;28;20026;-77
2022/09/16 13:06:27;;;;;;;1.13;0.60;;;;;;;;;;4994242;28;20033;-77
2022/09/16 13:08:53;;;;;;;2.13;0.88;;;;;;;;;;4994129;28;20125;-77
2022/09/16 13:11:28;;;;;;;1.27;0.52;;;;;;;;;;4995346;28;20387;-77
2022/09/16 13:13:57;;;;;;;2.42;0.50;;;;;;;;;;4995631;28;20037;-77
2022/09/16 13:16:34;;;;;;;0.95;0.60;;;;;;;;;;4993518;28;20033;-77
2022/09/16 13:19:26;;;;;;;1.95;0.70;;;;;;;;;;4995462;28;20037;-80
2022/09/16 13:22:29;;;;;;;1.75;0.60;;;;;;;;;;4994032;28;20491;-77
2022/09/16 13:25:27;;;;;;;1.10;0.60;;;;;;;;;;4993053;28;20041;-75
2022/09/16 13:28:00;;;;;;;6.03;0.90;;;;;;;;;;4993830;28;20085;-77
2022/09/16 13:30:31;;;;;;;1.95;0.60;;;;;;;;;;4992624;28;20081;-77
2022/09/16 13:33:20;;;;;;;1.40;0.70;;;;;;;;;;4993004;28;20049;-76
2022/09/16 13:35:48;;;;;;;3.03;0.60;;;;;;;;;;4988941;28;20050;-77
2022/09/16 13:38:13;;;;;;;2.40;0.50;;;;;;;;;;4993964;28;20041;-76
2022/09/16 13:40:39;;;;;;;1.87;0.60;;;;;;;;;;4994081;28;20066;-77
2022/09/16 13:43:07;;;;;;;2.53;0.90;;;;;;;;;;4993588;28;20031;-78
2022/09/16 13:45:38;;;;;;;2.70;0.70;;;;;;;;;;4993926;28;20048;-77
2022/09/16 13:48:23;;;;;;;1.00;0.70;;;;;;;;;;4993578;28;20501;-77
2022/09/16 13:50:56;;;;;;;1.95;0.65;;;;;;;;;;4993481;28;20122;-77
2022/09/16 13:53:30;;;;;;;1.92;0.60;;;;;;;;;;4994570;28;20557;-77
2022/09/16 13:56:06;;;;;;;0.65;0.60;;;;;;;;;;4993526;28;20476;-77
2022/09/16 13:59:00;;;;;;;1.42;0.50;;;;;;;;;;4993133;28;20061;-79
2022/09/16 14:01:43;;;;;;;2.43;0.60;;;;;;;;;;4994094;28;20472;-78
2022/09/16 14:04:27;;;;;;;0.95;0.52;;;;;;;;;;4993944;28;20372;-79
2022/09/16 14:07:27;;;;;;;1.13;0.60;;;;;;;;;;4993742;28;20049;-77
2022/09/16 14:10:10;;;;;;;1.48;0.60;;;;;;;;;;4995009;28;20041;-77
2022/09/16 14:12:42;;;;;;;2.70;0.90;;;;;;;;;;4996559;28;20085;-78
2022/09/16 14:15:09;;;;;;;1.35;0.73;;;;;;;;;;4994884;28;20026;-78
2022/09/16 14:17:50;;;;;;;1.55;1.00;;;;;;;;;;4996341;28;20026;-78
2022/09/16 14:20:18;;;;;;;1.67;0.65;;;;;;;;;;4997182;28;20129;-78
2022/09/16 14:22:44;;;;;;;2.40;0.70;;;;;;;;;;4997677;28;20443;-78
2022/09/16 14:25:27;;;;;;;0.75;0.40;;;;;;;;;;4998078;28;20038;-78
2022/09/16 14:28:17;;;;;;;0.50;0.43;;;;;;;;;;4995175;28;20034;-77
2022/09/16 14:30:57;;;;;;;2.53;0.70;;;;;;;;;;4993102;28;20085;-77
2022/09/16 14:33:40;;;;;;;1.05;0.70;;;;;;;;;;4994579;28;20022;-76
2022/09/16 14:36:13;;;;;;;1.17;0.52;;;;;;;;;;4993291;28;20018;-77
2022/09/16 14:38:44;;;;;;;1.10;0.40;;;;;;;;;;4993603;28;20065;-78
2022/09/16 14:41:20;;;;;;;1.35;0.55;;;;;;;;;;4993495;28;20022;-77
2022/09/16 14:43:46;;;;;;;0.75;0.38;;;;;;;;;;4994204;28;20058;-77
2022/09/16 14:46:11;;;;;;;1.92;0.47;;;;;;;;;;4995821;28;20069;-77
2022/09/16 14:48:39;;;;;;;1.27;0.50;;;;;;;;;;4996172;28;20110;-77
2022/09/16 14:51:19;;;;;;;1.70;0.47;;;;;;;;;;4996328;28;20072;-83
2022/09/16 14:53:56;;;;;;;2.05;0.30;;;;;;;;;;5004143;28;20455;-83
2022/09/16 14:56:25;;;;;;;1.48;0.30;;;;;;;;;;4999039;28;20073;-77
2022/09/16 14:58:52;;;;;;;0.70;0.40;;;;;;;;;;4996348;28;20041;-76
2022/09/16 15:01:25;;;;;;;1.15;0.63;;;;;;;;;;4996505;28;20026;-77
2022/09/16 15:04:01;;;;;;;0.35;0.28;;;;;;;;;;4998838;28;20423;-81
2022/09/16 15:06:32;;;;;;;0.30;0.22;;;;;;;;;;5000985;28;20125;-79
2022/09/16 15:09:07;;;;;;;1.10;0.32;;;;;;;;;;4999422;28;20022;-79
2022/09/16 15:11:43;;;;;;;1.45;0.40;;;;;;;;;;4999574;28;20022;-79
2022/09/16 15:14:08;;;;;;;1.05;0.30;;;;;;;;;;4999425;28;20050;-78
2022/09/16 15:16:40;;;;;;;1.83;0.50;;;;;;;;;;4999329;28;20026;-80
2022/09/16 15:19:05;;;;;;;2.95;0.30;;;;;;;;;;5000391;28;20258;-78